Time;durP1;ratioP1;P1;durP2;ratioP2;P2;SDS_P1;SDS_P2;PMS_P1;PMS_P2;Temp;Humidity;BMP_temperature;BMP_pressure;BME280_temperature;BME280_humidity;BME280_pressure;Samples;Min_cycle;Max_cycle;Signal;HPM_P1;HPM_P2
2022/09/26 00:01:26;;;;;;;19.47;17.80;;;12.50;99.90;;;;;;5053671;28;20186;-80
2022/09/26 00:03:58;;;;;;;21.23;19.03;;;12.50;99.90;;;;;;5049838;28;20217;-83
2022/09/26 00:06:25;;;;;;;20.67;18.70;;;12.50;99.90;;;;;;5043871;28;20226;-82
2022/09/26 00:08:51;;;;;;;26.73;24.47;;;12.40;99.90;;;;;;5041128;28;20189;-81
2022/09/26 00:11:21;;;;;;;22.70;20.80;;;12.40;99.90;;;;;;5040117;28;20183;-82
2022/09/26 00:13:51;;;;;;;54.40;50.67;;;12.40;99.90;;;;;;5038300;28;20636;-82
2022/09/26 00:16:17;;;;;;;74.57;69.90;;;12.30;99.90;;;;;;5037745;28;20626;-82
2022/09/26 00:18:47;;;;;;;45.23;42.03;;;12.20;99.90;;;;;;5051377;28;20181;-82
2022/09/26 00:21:14;;;;;;;26.17;23.73;;;12.10;99.90;;;;;;5058289;28;20193;-82
2022/09/26 00:23:41;;;;;;;24.50;22.27;;;12.00;99.90;;;;;;5058099;28;20201;-82
2022/09/26 00:26:07;;;;;;;74.13;69.23;;;12.00;99.90;;;;;;5057238;28;20213;-82
2022/09/26 00:28:33;;;;;;;63.50;59.47;;;11.80;99.90;;;;;;5049746;28;20171;-81
2022/09/26 00:31:30;;;;;;;47.23;43.20;;;11.80;99.90;;;;;;5037509;28;20209;-82
2022/09/26 00:33:57;;;;;;;31.50;28.80;;;11.70;99.90;;;;;;5033359;28;20233;-81
2022/09/26 00:36:23;;;;;;;39.33;36.23;;;11.80;99.90;;;;;;5037965;28;20218;-82
2022/09/26 00:38:49;;;;;;;43.33;40.00;;;11.80;99.90;;;;;;5037824;28;20570;-82
2022/09/26 00:41:16;;;;;;;34.60;31.87;;;11.80;99.90;;;;;;5036342;28;20217;-82
2022/09/26 00:43:48;;;;;;;32.43;29.90;;;11.80;99.90;;;;;;5035333;28;20210;-81
2022/09/26 00:46:34;;;;;;;25.33;22.97;;;11.80;99.90;;;;;;5036113;28;20284;-82
2022/09/26 00:49:34;;;;;;;30.40;27.73;;;11.80;99.90;;;;;;5033912;28;20549;-81
2022/09/26 00:52:03;;;;;;;32.87;30.33;;;11.80;99.90;;;;;;5033476;28;20207;-81
2022/09/26 00:54:30;;;;;;;37.07;34.30;;;11.80;99.90;;;;;;5040664;28;20183;-80
2022/09/26 00:57:06;;;;;;;34.37;31.43;;;11.80;99.90;;;;;;5061176;28;20193;-81
2022/09/26 00:59:37;;;;;;;28.40;26.03;;;11.70;99.90;;;;;;5054892;28;20212;-80
2022/09/26 01:02:04;;;;;;;25.13;22.77;;;11.80;99.90;;;;;;5068942;28;20197;-80
2022/09/26 01:04:33;;;;;;;23.67;21.20;;;11.80;99.90;;;;;;5071159;28;20186;-81
2022/09/26 01:07:04;;;;;;;25.10;21.63;;;11.70;99.90;;;;;;5038486;28;20206;-81
2022/09/26 01:09:31;;;;;;;23.90;21.67;;;11.70;99.90;;;;;;5054813;28;20185;-81
2022/09/26 01:12:00;;;;;;;23.13;20.83;;;11.70;99.90;;;;;;5055914;28;20646;-81
2022/09/26 01:14:26;;;;;;;27.40;25.00;;;11.70;99.90;;;;;;5054363;28;20681;-81
2022/09/26 01:16:53;;;;;;;26.97;24.37;;;11.80;99.90;;;;;;5038542;28;20171;-80
2022/09/26 01:19:43;;;;;;;24.80;22.63;;;11.70;99.90;;;;;;5036373;28;20679;-81
2022/09/26 01:22:26;;;;;;;25.77;20.17;;;11.80;99.90;;;;;;5033327;28;20201;-81
2022/09/26 01:25:37;;;;;;;21.73;19.63;;;11.80;99.90;;;;;;5036512;28;20190;-81
2022/09/26 01:28:33;;;;;;;21.63;19.63;;;11.70;99.90;;;;;;4991634;28;20283;-81
2022/09/26 01:31:07;;;;;;;20.77;18.87;;;11.70;99.90;;;;;;5055522;28;20193;-81
2022/09/26 01:33:57;;;;;;;20.20;18.20;;;11.70;99.90;;;;;;5071443;28;20236;-82
2022/09/26 01:36:41;;;;;;;19.37;17.37;;;11.60;99.90;;;;;;5041460;28;20191;-81
2022/09/26 01:39:27;;;;;;;19.23;17.20;;;11.60;99.90;;;;;;5038201;28;20179;-82
2022/09/26 01:42:18;;;;;;;23.43;21.43;;;11.60;99.90;;;;;;5035645;28;20189;-81
2022/09/26 01:45:06;;;;;;;37.30;34.13;;;11.60;99.90;;;;;;5034828;28;20183;-81
2022/09/26 01:47:43;;;;;;;26.77;24.30;;;11.60;99.90;;;;;;5044438;28;20705;-82
2022/09/26 01:50:26;;;;;;;24.00;21.70;;;11.60;99.90;;;;;;5054582;28;20641;-81
2022/09/26 01:53:00;;;;;;;22.50;20.53;;;11.50;99.90;;;;;;5053800;28;20205;-81
2022/09/26 01:55:40;;;;;;;23.03;21.30;;;11.40;99.90;;;;;;5053223;28;20185;-81
2022/09/26 01:58:12;;;;;;;36.37;33.20;;;11.30;99.90;;;;;;5034624;28;20175;-81
2022/09/26 02:00:42;;;;;;;24.00;22.27;;;11.20;99.90;;;;;;5033813;28;20179;-80
2022/09/26 02:03:16;;;;;;;27.17;25.13;;;11.10;99.90;;;;;;5043727;28;20675;-81
2022/09/26 02:05:48;;;;;;;27.57;25.63;;;11.10;99.90;;;;;;5044904;28;20261;-80
2022/09/26 02:08:26;;;;;;;23.07;21.13;;;11.10;99.90;;;;;;5071880;28;20182;-81
2022/09/26 02:11:01;;;;;;;19.33;17.50;;;11.10;99.90;;;;;;5054132;28;20182;-81
2022/09/26 02:13:43;;;;;;;20.23;18.70;;;11.10;99.90;;;;;;5055050;28;20225;-81
2022/09/26 02:16:24;;;;;;;22.77;21.00;;;11.10;99.90;;;;;;5053966;28;20641;-80
2022/09/26 02:19:02;;;;;;;20.63;18.93;;;11.10;99.90;;;;;;5052867;28;20279;-81
2022/09/26 02:21:27;;;;;;;21.60;19.40;;;11.10;99.90;;;;;;5053928;28;20221;-81
2022/09/26 02:23:53;;;;;;;22.03;20.07;;;11.10;99.90;;;;;;5052382;28;20208;-78
2022/09/26 02:26:20;;;;;;;19.20;17.83;;;11.10;99.90;;;;;;5048370;28;20592;-80
2022/09/26 02:28:46;;;;;;;23.23;21.50;;;11.10;99.90;;;;;;5046097;28;20586;-80
2022/09/26 02:31:19;;;;;;;35.43;33.13;;;11.10;99.90;;;;;;5056223;28;20194;-81
2022/09/26 02:33:48;;;;;;;38.67;36.17;;;11.00;99.90;;;;;;5065929;28;20198;-79
2022/09/26 02:36:15;;;;;;;36.13;33.77;;;11.00;99.90;;;;;;5046060;28;20178;-81
2022/09/26 02:38:41;;;;;;;26.90;24.80;;;10.90;99.90;;;;;;5041207;28;20229;-80
2022/09/26 02:41:21;;;;;;;24.00;22.33;;;10.90;99.90;;;;;;5042408;28;20648;-83
2022/09/26 02:44:19;;;;;;;29.70;27.13;;;10.90;99.90;;;;;;5038706;28;20288;-82
2022/09/26 02:47:13;;;;;;;30.13;27.53;;;10.90;99.90;;;;;;5043749;28;20211;-82
2022/09/26 02:49:57;;;;;;;24.93;23.23;;;10.80;99.90;;;;;;5057350;28;20188;-82
2022/09/26 02:53:16;;;;;;;17.17;15.73;;;10.80;99.90;;;;;;5056111;28;20197;-82
2022/09/26 02:56:13;;;;;;;16.80;15.30;;;10.70;99.90;;;;;;5053349;28;20198;-82
2022/09/26 02:58:58;;;;;;;19.03;17.53;;;10.70;99.90;;;;;;5035450;28;20214;-82
2022/09/26 03:01:24;;;;;;;17.87;16.37;;;10.70;99.90;;;;;;5036360;28;20186;-82
2022/09/26 03:04:05;;;;;;;14.37;12.97;;;10.70;99.90;;;;;;5037771;28;20264;-80
2022/09/26 03:06:42;;;;;;;18.57;17.03;;;10.70;99.90;;;;;;5057555;28;20202;-81
2022/09/26 03:09:11;;;;;;;20.27;18.67;;;10.60;99.90;;;;;;5068568;28;20273;-81
2022/09/26 03:11:38;;;;;;;20.03;18.50;;;10.60;99.90;;;;;;5077087;28;20189;-82
2022/09/26 03:14:04;;;;;;;20.90;18.93;;;10.60;99.90;;;;;;5059265;28;20201;-83
2022/09/26 03:16:35;;;;;;;18.10;16.30;;;10.60;99.90;;;;;;5054698;28;20572;-83
2022/09/26 03:19:05;;;;;;;19.77;18.27;;;10.60;99.90;;;;;;5039668;28;20191;-82
2022/09/26 03:21:32;;;;;;;19.07;17.47;;;10.70;99.90;;;;;;5037060;28;20197;-81
2022/09/26 03:23:58;;;;;;;19.97;18.27;;;10.60;99.90;;;;;;5037092;28;20206;-82
2022/09/26 03:26:26;;;;;;;18.70;17.20;;;10.60;99.90;;;;;;5036871;28;20226;-82
2022/09/26 03:28:55;;;;;;;15.10;13.73;;;10.60;99.90;;;;;;5036705;28;20211;-82
2022/09/26 03:31:23;;;;;;;18.47;17.17;;;10.60;99.90;;;;;;5037277;28;20678;-82
2022/09/26 03:33:50;;;;;;;20.60;18.97;;;10.60;99.90;;;;;;5035572;28;20195;-82
2022/09/26 03:36:17;;;;;;;15.70;14.40;;;10.60;99.90;;;;;;5038101;28;20186;-82
2022/09/26 03:38:44;;;;;;;17.13;15.87;;;10.60;99.90;;;;;;5054816;28;20711;-82
2022/09/26 03:41:10;;;;;;;18.50;16.60;;;10.60;99.90;;;;;;5056238;28;20217;-81
2022/09/26 03:43:36;;;;;;;19.47;17.70;;;10.60;99.90;;;;;;5055766;28;20202;-81
2022/09/26 03:46:06;;;;;;;16.00;13.93;;;10.60;99.90;;;;;;5054644;28;20209;-81
2022/09/26 03:48:33;;;;;;;12.43;11.13;;;10.50;99.90;;;;;;5039020;28;20643;-82
2022/09/26 03:51:07;;;;;;;16.53;13.40;;;10.50;99.90;;;;;;5055004;28;20174;-81
2022/09/26 03:53:34;;;;;;;14.97;13.57;;;10.50;99.90;;;;;;5057066;28;20297;-81
2022/09/26 03:56:04;;;;;;;17.50;15.97;;;10.50;99.90;;;;;;5057052;28;20205;-81
2022/09/26 03:58:30;;;;;;;20.30;18.67;;;10.50;99.90;;;;;;5035239;28;20664;-81
2022/09/26 04:01:04;;;;;;;17.07;15.70;;;10.40;99.90;;;;;;5034286;28;20275;-81
2022/09/26 04:03:33;;;;;;;19.20;17.77;;;10.40;99.90;;;;;;5033925;28;20207;-82
2022/09/26 04:05:59;;;;;;;20.67;18.87;;;10.40;99.90;;;;;;5035037;28;20203;-82
2022/09/26 04:08:24;;;;;;;20.83;19.03;;;10.40;99.90;;;;;;5062373;28;20185;-82
2022/09/26 04:10:50;;;;;;;21.87;20.27;;;10.40;99.90;;;;;;5057717;28;20186;-82
2022/09/26 04:13:16;;;;;;;19.83;18.33;;;10.40;99.90;;;;;;5077835;22;20222;-80
2022/09/26 04:15:43;;;;;;;21.57;19.97;;;10.40;99.90;;;;;;5046651;28;20186;-78
2022/09/26 04:18:09;;;;;;;16.73;15.43;;;10.40;99.90;;;;;;5073215;28;20255;-78
2022/09/26 04:20:35;;;;;;;16.13;14.93;;;10.40;99.90;;;;;;5051031;28;20209;-79
2022/09/26 04:23:01;;;;;;;20.43;18.33;;;10.30;99.90;;;;;;5066045;28;20189;-80
2022/09/26 04:25:28;;;;;;;16.47;15.10;;;10.30;99.90;;;;;;5064752;28;20190;-80
2022/09/26 04:27:54;;;;;;;18.37;17.00;;;10.30;99.90;;;;;;5062909;28;20545;-80
2022/09/26 04:30:21;;;;;;;20.63;19.07;;;10.30;99.90;;;;;;5064315;28;20185;-80
2022/09/26 04:32:46;;;;;;;22.90;21.23;;;10.20;99.90;;;;;;5061576;28;20213;-80
2022/09/26 04:35:12;;;;;;;24.80;22.73;;;10.20;99.90;;;;;;5062809;28;20187;-80
2022/09/26 04:37:40;;;;;;;24.37;22.60;;;10.20;99.90;;;;;;5061013;28;20245;-81
2022/09/26 04:40:08;;;;;;;27.43;24.93;;;10.20;99.90;;;;;;5066439;28;20189;-81
2022/09/26 04:42:35;;;;;;;20.27;18.57;;;10.20;99.90;;;;;;5066930;28;20244;-81
2022/09/26 04:45:02;;;;;;;20.17;18.73;;;10.30;99.90;;;;;;5064094;28;20198;-81
2022/09/26 04:47:28;;;;;;;19.43;17.80;;;10.30;99.90;;;;;;5063394;28;20281;-80
2022/09/26 04:49:54;;;;;;;21.37;19.60;;;10.30;99.90;;;;;;5049805;28;20194;-77
2022/09/26 04:52:20;;;;;;;22.77;21.20;;;10.20;99.90;;;;;;5072763;28;20175;-78
2022/09/26 04:54:46;;;;;;;31.40;29.10;;;10.20;99.90;;;;;;5065608;28;20728;-80
2022/09/26 04:57:13;;;;;;;30.30;27.97;;;10.20;99.90;;;;;;5066327;28;20352;-78
2022/09/26 04:59:39;;;;;;;16.27;14.83;;;10.10;99.90;;;;;;5064023;28;20183;-80
2022/09/26 05:02:07;;;;;;;20.63;18.93;;;10.10;99.90;;;;;;5062419;28;20193;-80
2022/09/26 05:04:33;;;;;;;20.90;19.20;;;10.10;99.90;;;;;;5061910;28;20209;-80
2022/09/26 05:06:59;;;;;;;28.23;26.43;;;10.00;99.90;;;;;;5058066;28;20194;-81
2022/09/26 05:09:26;;;;;;;35.33;32.83;;;10.00;99.90;;;;;;5057608;28;20734;-80
2022/09/26 05:11:52;;;;;;;25.97;24.03;;;10.00;99.90;;;;;;5063211;28;20179;-80
2022/09/26 05:14:18;;;;;;;22.27;20.60;;;10.00;99.90;;;;;;5063168;28;20240;-81
2022/09/26 05:16:44;;;;;;;23.13;21.43;;;10.00;99.90;;;;;;5061064;28;20185;-80
2022/09/26 05:19:10;;;;;;;26.07;23.87;;;10.00;99.90;;;;;;5050086;28;20351;-80
2022/09/26 05:21:36;;;;;;;26.67;24.93;;;10.00;99.90;;;;;;5036303;28;20689;-80
2022/09/26 05:26:49;;;;;;;33.33;31.13;;;10.00;99.90;;;;;;5056112;28;20205;-79
2022/09/26 05:29:19;;;;;;;36.70;34.37;;;10.10;99.90;;;;;;5064617;28;20176;-78
2022/09/26 05:31:45;;;;;;;29.27;27.47;;;10.10;99.90;;;;;;5064038;28;20186;-78
2022/09/26 05:34:12;;;;;;;25.33;23.60;;;10.10;99.90;;;;;;5047236;28;20205;-79
2022/09/26 05:36:41;;;;;;;22.67;20.70;;;10.10;99.90;;;;;;5043584;28;20194;-78
2022/09/26 05:40:55;;;;;;;25.77;23.80;;;10.20;99.90;;;;;;5050961;28;20178;-79
2022/09/26 05:41:53;;;;;;;34.30;31.97;;;10.20;99.90;;;;;;5059914;28;20182;-79
2022/09/26 05:44:19;;;;;;;20.03;18.03;;;10.20;99.90;;;;;;5067703;28;20300;-79
2022/09/26 05:46:46;;;;;;;19.70;17.97;;;10.10;99.90;;;;;;5066094;28;20206;-79
2022/09/26 05:49:13;;;;;;;36.20;32.97;;;10.10;99.90;;;;;;5053500;28;20189;-80
2022/09/26 05:51:40;;;;;;;53.47;50.07;;;10.10;99.90;;;;;;5052916;28;20189;-79
2022/09/26 05:54:06;;;;;;;46.63;43.73;;;10.10;99.90;;;;;;5052016;28;20189;-80
2022/09/26 05:56:36;;;;;;;27.07;24.83;;;10.00;99.90;;;;;;5053714;28;20189;-80
2022/09/26 05:59:03;;;;;;;28.97;26.73;;;10.00;99.90;;;;;;5051376;28;20193;-79
2022/09/26 06:01:29;;;;;;;30.67;28.13;;;10.10;99.90;;;;;;5051570;28;20563;-79
2022/09/26 06:03:54;;;;;;;37.43;34.60;;;10.10;99.90;;;;;;5051265;28;20292;-79
2022/09/26 06:06:20;;;;;;;35.57;33.03;;;10.20;99.90;;;;;;5052692;28;20194;-79
2022/09/26 06:08:48;;;;;;;30.97;28.40;;;10.30;99.90;;;;;;5052319;28;20185;-78
2022/09/26 06:11:17;;;;;;;27.27;25.27;;;10.40;99.90;;;;;;5052340;28;20178;-80
2022/09/26 06:13:47;;;;;;;32.00;29.73;;;10.40;99.90;;;;;;5061304;28;20206;-79
2022/09/26 06:16:17;;;;;;;44.53;41.50;;;10.50;99.90;;;;;;5065431;28;20201;-78
2022/09/26 06:18:43;;;;;;;42.47;39.30;;;10.60;99.90;;;;;;5059981;28;20261;-79
2022/09/26 06:21:11;;;;;;;35.77;33.27;;;10.60;99.90;;;;;;5054562;28;20706;-79
2022/09/26 06:23:37;;;;;;;19.07;17.17;;;10.80;99.90;;;;;;5055498;28;20209;-79
2022/09/26 06:26:08;;;;;;;19.23;17.73;;;10.90;99.90;;;;;;5053173;28;20230;-79
2022/09/26 06:28:38;;;;;;;31.10;28.80;;;11.10;99.90;;;;;;5051671;28;20178;-79
2022/09/26 06:31:12;;;;;;;25.47;23.33;;;11.40;99.90;;;;;;5033849;28;20262;-79
2022/09/26 06:33:38;;;;;;;19.27;17.53;;;11.60;99.90;;;;;;5031329;28;20198;-79
2022/09/26 06:36:06;;;;;;;16.40;13.57;;;11.70;99.90;;;;;;5033907;28;20712;-78
2022/09/26 06:38:32;;;;;;;22.47;20.47;;;11.70;99.90;;;;;;5060120;28;20182;-79
2022/09/26 06:40:57;;;;;;;24.13;22.27;;;11.80;99.90;;;;;;5059548;28;20192;-79
2022/09/26 06:43:23;;;;;;;23.33;21.33;;;11.70;99.90;;;;;;5052239;28;20581;-79
2022/09/26 06:45:49;;;;;;;20.83;18.47;;;11.80;99.90;;;;;;5053582;28;20184;-80
2022/09/26 06:48:16;;;;;;;24.27;22.23;;;11.80;99.90;;;;;;5050432;28;20178;-80
2022/09/26 06:50:42;;;;;;;23.30;21.43;;;11.90;99.90;;;;;;5054720;28;20182;-79
2022/09/26 06:53:08;;;;;;;19.80;18.00;;;12.00;99.90;;;;;;5051079;28;20206;-79
2022/09/26 06:55:34;;;;;;;36.73;34.33;;;12.10;99.90;;;;;;5055282;28;20621;-78
2022/09/26 06:58:00;;;;;;;35.37;32.87;;;12.20;99.90;;;;;;5062192;28;20189;-78
2022/09/26 07:00:28;;;;;;;72.97;68.73;;;12.80;99.90;;;;;;5051265;28;20183;-79
2022/09/26 07:02:55;;;;;;;29.17;27.23;;;13.20;99.90;;;;;;5053076;28;20194;-80
2022/09/26 07:05:23;;;;;;;41.93;39.37;;;13.30;99.90;;;;;;5053459;28;20187;-79
2022/09/26 07:07:48;;;;;;;61.80;58.33;;;13.30;99.90;;;;;;5051954;28;20651;-79
2022/09/26 07:10:20;;;;;;;71.50;67.10;;;13.30;99.90;;;;;;5049914;28;20182;-79
2022/09/26 07:12:47;;;;;;;47.33;44.63;;;13.30;99.90;;;;;;5053760;28;20185;-78
2022/09/26 07:15:15;;;;;;;40.30;37.77;;;13.40;99.90;;;;;;5073369;28;20218;-75
2022/09/26 07:17:43;;;;;;;32.63;30.20;;;13.60;99.90;;;;;;5052155;28;20177;-75
2022/09/26 07:20:15;;;;;;;62.07;58.33;;;13.60;99.90;;;;;;5051596;28;20179;-74
2022/09/26 07:22:44;;;;;;;46.50;43.77;;;13.60;99.90;;;;;;5051630;28;20182;-75
2022/09/26 07:25:11;;;;;;;55.63;52.53;;;13.50;99.90;;;;;;5051207;28;20336;-75
2022/09/26 07:27:38;;;;;;;48.00;45.40;;;13.50;99.90;;;;;;5051007;28;20210;-74
2022/09/26 07:30:05;;;;;;;27.10;25.60;;;13.50;99.90;;;;;;5053011;28;20266;-80
2022/09/26 07:32:32;;;;;;;13.30;12.30;;;13.50;99.90;;;;;;5056853;28;20194;-80
2022/09/26 07:34:58;;;;;;;15.53;14.57;;;13.40;99.90;;;;;;5056579;28;20191;-80
2022/09/26 07:37:25;;;;;;;21.47;19.97;;;13.50;99.90;;;;;;5055971;28;20549;-80
2022/09/26 07:39:51;;;;;;;12.57;11.60;;;13.40;99.90;;;;;;5054703;28;20181;-81
2022/09/26 07:42:17;;;;;;;13.67;12.53;;;13.40;99.90;;;;;;5055834;28;20265;-80
2022/09/26 07:44:43;;;;;;;13.53;11.67;;;13.50;99.90;;;;;;5056160;28;20229;-81
2022/09/26 07:50:14;;;;;;;17.67;16.60;;;13.80;99.90;;;;;;5039242;28;20253;-77
2022/09/26 07:52:44;;;;;;;24.73;23.43;;;13.90;99.90;;;;;;5032934;28;20271;-79
2022/09/26 07:55:13;;;;;;;28.77;27.17;;;14.10;99.90;;;;;;5030578;28;20222;-76
2022/09/26 07:57:39;;;;;;;16.77;15.77;;;14.30;99.90;;;;;;5048564;28;20208;-77
2022/09/26 08:00:20;;;;;;;10.13;9.53;;;14.50;99.90;;;;;;5052523;28;20182;-77
2022/09/26 08:02:46;;;;;;;12.00;11.30;;;14.70;99.90;;;;;;5050669;28;20567;-80
2022/09/26 08:05:16;;;;;;;10.07;9.13;;;14.90;99.90;;;;;;5052029;28;20206;-79
2022/09/26 08:07:43;;;;;;;8.90;8.30;;;15.50;99.90;;;;;;5051782;28;20292;-80
2022/09/26 08:10:18;;;;;;;8.67;8.07;;;15.80;99.90;;;;;;5053091;28;20224;-79
2022/09/26 08:12:45;;;;;;;9.57;8.67;;;16.10;99.90;;;;;;5052729;28;20206;-79
2022/09/26 08:15:11;;;;;;;11.37;10.60;;;16.30;99.90;;;;;;5052844;28;20808;-77
2022/09/26 08:17:38;;;;;;;15.50;14.63;;;16.60;99.90;;;;;;5052562;28;20264;-78
2022/09/26 08:20:04;;;;;;;14.87;14.17;;;17.00;99.90;;;;;;5049587;28;20185;-77
2022/09/26 08:22:30;;;;;;;9.00;8.43;;;17.30;99.90;;;;;;5032631;28;20183;-80
2022/09/26 08:24:57;;;;;;;12.90;12.07;;;17.30;99.90;;;;;;5040371;28;20567;-78
2022/09/26 08:27:23;;;;;;;12.53;11.70;;;17.10;99.90;;;;;;5052991;28;20309;-78
2022/09/26 08:29:50;;;;;;;9.43;8.73;;;16.90;99.90;;;;;;5052617;28;20194;-76
2022/09/26 08:32:18;;;;;;;16.60;15.70;;;16.80;99.90;;;;;;5051147;28;20182;-77
2022/09/26 08:34:44;;;;;;;18.57;17.37;;;16.70;99.90;;;;;;5051085;28;20247;-77
2022/09/26 08:37:10;;;;;;;15.63;14.63;;;16.50;99.90;;;;;;5051478;28;20182;-77
2022/09/26 08:39:36;;;;;;;15.00;14.10;;;16.20;99.90;;;;;;5052981;28;20185;-77
2022/09/26 08:42:31;;;;;;;8.00;7.30;;;15.80;99.90;;;;;;5052066;28;20184;-78
2022/09/26 08:48:19;;;;;;;5.30;4.90;;;15.50;99.90;;;;;;5054960;28;20194;-77
2022/09/26 08:50:52;;;;;;;4.93;4.63;;;15.50;99.90;;;;;;5055111;28;20277;-77
2022/09/26 08:53:23;;;;;;;5.23;4.87;;;15.60;99.90;;;;;;5063786;28;20206;-78
2022/09/26 08:55:52;;;;;;;5.53;5.00;;;15.80;99.90;;;;;;5054553;28;20239;-78
2022/09/26 08:58:26;;;;;;;6.30;5.67;;;16.10;99.90;;;;;;5058300;28;20545;-80
2022/09/26 09:01:08;;;;;;;5.63;5.13;;;16.30;99.90;;;;;;5055687;28;20275;-78
2022/09/26 09:03:46;;;;;;;10.27;9.73;;;16.40;99.90;;;;;;5053592;28;20208;-79
2022/09/26 09:06:14;;;;;;;8.77;8.10;;;16.40;99.90;;;;;;5054164;28;20201;-79
2022/09/26 09:08:42;;;;;;;11.73;10.67;;;16.70;99.90;;;;;;5046531;28;20211;-79
2022/09/26 09:11:45;;;;;;;8.00;7.50;;;17.30;99.90;;;;;;5034647;28;20187;-79
2022/09/26 09:14:26;;;;;;;15.87;14.80;;;17.80;99.90;;;;;;5048363;28;20264;-80
2022/09/26 09:17:05;;;;;;;30.10;28.47;;;18.10;99.90;;;;;;5034807;28;20664;-80
2022/09/26 09:19:38;;;;;;;92.73;88.23;;;18.60;99.90;;;;;;5040859;28;20559;-78
2022/09/26 09:22:34;;;;;;;60.97;57.87;;;18.70;99.90;;;;;;5047274;28;20186;-79
2022/09/26 09:25:14;;;;;;;47.27;44.80;;;18.70;99.90;;;;;;5057604;28;20210;-77
2022/09/26 09:27:58;;;;;;;46.93;44.57;;;19.10;99.90;;;;;;5063364;28;20213;-79
2022/09/26 09:30:49;;;;;;;28.13;26.57;;;19.40;99.90;;;;;;5061200;28;20262;-79
2022/09/26 09:33:26;;;;;;;28.63;27.00;;;19.90;99.90;;;;;;5052772;28;20225;-79
2022/09/26 09:35:58;;;;;;;13.43;12.33;;;20.50;99.90;;;;;;5058245;28;20250;-80
2022/09/26 09:38:32;;;;;;;7.67;7.23;;;20.50;99.90;;;;;;5036918;28;20175;-78
2022/09/26 09:41:07;;;;;;;8.43;7.63;;;20.30;99.90;;;;;;5032072;28;20600;-79
2022/09/26 09:43:50;;;;;;;8.77;8.17;;;20.70;99.90;;;;;;5034986;28;20198;-79
2022/09/26 09:46:25;;;;;;;10.00;9.03;;;21.30;99.90;;;;;;5052030;28;20210;-78
2022/09/26 09:49:00;;;;;;;19.33;18.23;;;21.50;99.90;;;;;;5050921;28;20273;-78
2022/09/26 09:52:11;;;;;;;18.93;17.73;;;21.50;99.90;;;;;;5053728;28;20211;-79
2022/09/26 09:54:51;;;;;;;24.23;22.67;;;22.10;99.90;;;;;;5052872;28;20287;-79
2022/09/26 09:57:41;;;;;;;16.60;15.60;;;21.40;99.90;;;;;;5053476;28;20210;-78
2022/09/26 10:00:13;;;;;;;11.50;10.70;;;21.30;99.90;;;;;;5052435;28;20186;-78
2022/09/26 10:02:42;;;;;;;9.70;8.10;;;21.20;99.90;;;;;;5054317;28;20190;-78
2022/09/26 10:05:27;;;;;;;7.65;7.15;;;21.30;99.90;;;;;;5053638;28;20632;-78
2022/09/26 10:07:57;;;;;;;10.10;9.40;;;21.40;99.90;;;;;;5051008;28;20207;-79
2022/09/26 10:11:08;;;;;;;6.73;6.00;;;21.30;99.90;;;;;;5048804;28;20594;-79
2022/09/26 10:13:34;;;;;;;7.63;7.03;;;20.30;99.90;;;;;;5037612;22;20278;-77
2022/09/26 10:16:03;;;;;;;44.83;42.60;;;19.30;99.90;;;;;;5051098;28;20178;-77
2022/09/26 10:18:30;;;;;;;26.67;25.17;;;18.40;99.90;;;;;;5032649;28;20289;-77
2022/09/26 10:20:58;;;;;;;13.73;12.93;;;17.80;99.90;;;;;;5049342;28;20249;-78
2022/09/26 10:23:41;;;;;;;10.77;10.07;;;17.50;99.90;;;;;;5049918;28;20179;-76
2022/09/26 10:26:09;;;;;;;7.13;6.20;;;17.30;99.90;;;;;;5048779;28;20599;-76
2022/09/26 10:28:47;;;;;;;5.73;5.23;;;18.10;99.90;;;;;;5048270;28;20174;-76
2022/09/26 10:31:43;;;;;;;6.97;6.13;;;18.80;99.90;;;;;;5048501;28;20174;-76
2022/09/26 10:34:27;;;;;;;8.90;8.40;;;19.40;99.90;;;;;;5036741;28;20256;-78
2022/09/26 10:36:53;;;;;;;13.37;12.57;;;19.70;99.90;;;;;;5048416;28;20596;-76
2022/09/26 10:42:19;;;;;;;7.40;6.90;;;19.40;99.90;;;;;;5049758;28;20178;-74
2022/09/26 10:44:46;;;;;;;12.70;12.00;;;20.40;99.90;;;;;;5048118;28;20206;-72
2022/09/26 10:47:25;;;;;;;17.37;16.47;;;21.20;99.90;;;;;;5052160;28;20582;-74
2022/09/26 10:50:00;;;;;;;25.40;24.17;;;20.80;99.90;;;;;;5053406;28;20194;-74
2022/09/26 10:52:33;;;;;;;18.77;17.50;;;20.20;99.90;;;;;;5053345;28;20545;-74
2022/09/26 10:55:03;;;;;;;18.57;17.60;;;19.90;99.90;;;;;;5053189;28;20193;-74
2022/09/26 10:57:39;;;;;;;20.80;19.80;;;19.70;99.90;;;;;;5055122;28;20549;-74
2022/09/26 11:00:07;;;;;;;25.80;24.10;;;20.00;99.90;;;;;;5048773;28;20221;-74
2022/09/26 11:02:34;;;;;;;32.00;30.47;;;20.60;99.90;;;;;;5050934;28;20205;-75
2022/09/26 11:07:51;;;;;;;33.35;31.63;;;21.30;99.90;;;;;;5052451;28;20760;-74
2022/09/26 11:10:33;;;;;;;15.00;14.20;;;23.10;99.90;;;;;;5052736;28;20180;-75
2022/09/26 11:13:22;;;;;;;4.60;4.38;;;24.30;99.90;;;;;;5052336;28;20186;-74
2022/09/26 11:15:52;;;;;;;4.57;4.18;;;24.70;98.70;;;;;;5032874;28;20183;-77
2022/09/26 11:18:25;;;;;;;4.53;4.22;;;24.60;94.70;;;;;;5032909;28;20179;-75
2022/09/26 11:20:59;;;;;;;3.92;3.65;;;24.50;96.50;;;;;;5032096;28;20175;-74
2022/09/26 11:23:43;;;;;;;4.35;3.95;;;24.70;93.40;;;;;;5031212;28;20545;-75
2022/09/26 11:26:26;;;;;;;5.35;4.82;;;23.80;93.40;;;;;;5036540;28;20205;-79
2022/09/26 11:29:08;;;;;;;5.35;4.95;;;22.60;95.10;;;;;;5056830;28;20190;-81
2022/09/26 11:31:41;;;;;;;5.68;5.32;;;21.60;97.00;;;;;;5058348;28;20795;-82
2022/09/26 11:34:15;;;;;;;6.22;5.82;;;21.20;97.80;;;;;;5070126;28;20214;-80
2022/09/26 11:37:06;;;;;;;7.10;6.70;;;21.20;97.90;;;;;;5058720;28;20280;-76
2022/09/26 11:39:49;;;;;;;8.10;7.40;;;21.30;98.10;;;;;;5053204;28;20395;-77
2022/09/26 11:42:28;;;;;;;5.67;5.37;;;21.20;98.60;;;;;;5052067;28;20186;-77
2022/09/26 11:45:03;;;;;;;6.07;5.60;;;21.20;99.90;;;;;;5054257;28;20198;-77
2022/09/26 11:47:45;;;;;;;5.30;4.85;;;20.80;99.20;;;;;;5052922;28;20259;-77
2022/09/26 11:50:30;;;;;;;4.23;3.97;;;20.60;99.90;;;;;;5055340;28;20190;-78
2022/09/26 11:53:34;;;;;;;5.10;4.13;;;20.50;99.90;;;;;;5058732;28;20206;-78
2022/09/26 11:56:26;;;;;;;5.37;5.00;;;19.90;99.90;;;;;;5057322;28;20562;-78
2022/09/26 11:59:35;;;;;;;6.57;6.20;;;19.60;99.90;;;;;;5008038;28;20198;-77
2022/09/26 12:02:31;;;;;;;46.30;43.80;;;19.20;99.90;;;;;;5049811;28;20302;-77
2022/09/26 12:05:16;;;;;;;28.10;26.67;;;19.00;99.90;;;;;;5031360;28;20206;-72
2022/09/26 12:07:57;;;;;;;42.33;40.13;;;18.90;99.90;;;;;;5038051;28;20198;-71
2022/09/26 12:10:24;;;;;;;41.70;39.70;;;18.80;99.90;;;;;;5051933;28;20186;-72
2022/09/26 12:13:16;;;;;;;46.67;44.20;;;18.70;99.90;;;;;;5052052;28;20243;-74
2022/09/26 12:16:08;;;;;;;28.00;26.70;;;18.90;99.90;;;;;;5050988;28;20336;-72
2022/09/26 12:18:49;;;;;;;19.10;18.23;;;19.00;99.90;;;;;;5049750;28;20185;-71
2022/09/26 12:21:29;;;;;;;4.73;4.53;;;19.20;99.00;;;;;;5051770;28;20275;-72
2022/09/26 12:24:15;;;;;;;9.30;8.87;;;20.50;97.10;;;;;;5055311;28;20294;-72
2022/09/26 12:27:10;;;;;;;6.77;6.40;;;21.90;93.20;;;;;;5050836;28;20205;-73
2022/09/26 12:29:44;;;;;;;6.60;6.30;;;21.20;92.00;;;;;;5051652;28;20179;-74
2022/09/26 12:32:25;;;;;;;5.10;4.70;;;22.50;92.50;;;;;;5051407;28;20325;-73
2022/09/26 12:35:19;;;;;;;4.15;4.03;;;22.80;88.60;;;;;;5051773;28;20203;-73
2022/09/26 12:38:15;;;;;;;4.50;3.50;;;23.10;90.00;;;;;;5049999;28;20237;-74
2022/09/26 12:40:56;;;;;;;3.28;3.17;;;23.40;87.70;;;;;;5039468;28;20195;-74
2022/09/26 12:43:39;;;;;;;6.25;5.95;;;24.90;83.10;;;;;;5051539;28;20214;-73
2022/09/26 12:46:29;;;;;;;7.00;6.70;;;24.30;81.50;;;;;;5051467;28;20236;-73
2022/09/26 12:49:23;;;;;;;6.05;4.60;;;22.60;84.00;;;;;;5049541;28;20256;-73
2022/09/26 12:51:57;;;;;;;3.37;3.27;;;20.70;88.60;;;;;;5050642;28;20178;-73
2022/09/26 12:54:32;;;;;;;4.90;4.70;;;19.80;91.80;;;;;;5051159;28;20201;-72
2022/09/26 12:57:08;;;;;;;7.37;6.90;;;19.80;93.70;;;;;;5049605;28;20185;-76
2022/09/26 12:59:40;;;;;;;4.07;3.87;;;20.80;91.60;;;;;;5051171;28;20186;-76
2022/09/26 13:02:18;;;;;;;4.72;4.47;;;22.70;88.90;;;;;;5051437;28;20183;-76
2022/09/26 13:05:08;;;;;;;3.80;3.70;;;24.50;82.20;;;;;;5049558;28;20209;-76
2022/09/26 13:07:34;;;;;;;31.45;29.98;;;26.60;79.10;;;;;;5049081;28;20210;-76
2022/09/26 13:10:11;;;;;;;42.50;40.35;;;26.10;71.90;;;;;;5049682;28;20736;-76
2022/09/26 13:12:57;;;;;;;38.38;36.50;;;24.50;74.50;;;;;;5050361;28;20185;-76
2022/09/26 13:15:38;;;;;;;12.75;12.20;;;22.80;78.50;;;;;;5038204;28;20249;-76
2022/09/26 13:18:29;;;;;;;11.80;11.13;;;21.20;84.30;;;;;;5031313;28;20265;-75